createdAt,value
2017-11-22T00:00:25.793Z,8.83
2017-11-22T00:02:52.784Z,7.90
2017-11-22T00:05:19.016Z,8.10
2017-11-22T00:07:45.240Z,8.80
2017-11-22T00:10:11.757Z,8.00
2017-11-22T00:12:37.964Z,9.17
2017-11-22T00:15:04.179Z,7.70
2017-11-22T00:17:31.166Z,8.40
2017-11-22T00:19:57.407Z,7.73
2017-11-22T00:22:23.605Z,7.97
2017-11-22T00:24:49.838Z,8.27
2017-11-22T00:27:16.032Z,8.20
2017-11-22T00:29:42.994Z,8.40
2017-11-22T00:32:09.976Z,9.00
2017-11-22T00:34:36.196Z,8.30
2017-11-22T00:37:02.444Z,9.27
2017-11-22T00:39:28.638Z,9.60
2017-11-22T00:41:54.900Z,9.30
2017-11-22T00:44:21.085Z,8.13
2017-11-22T00:46:48.034Z,9.07
2017-11-22T00:49:14.292Z,9.07
2017-11-22T00:51:40.492Z,10.00
2017-11-22T00:54:06.716Z,9.80
2017-11-22T00:56:33.651Z,9.37
2017-11-22T00:58:59.840Z,10.13
2017-11-22T01:01:26.048Z,10.23
2017-11-22T01:03:52.226Z,9.70
2017-11-22T01:06:19.146Z,10.23
2017-11-22T01:08:45.376Z,9.70
2017-11-22T01:11:11.608Z,10.33
2017-11-22T01:13:38.529Z,10.07
2017-11-22T01:16:04.787Z,10.17
2017-11-22T01:18:31.040Z,10.17
2017-11-22T01:20:57.991Z,10.23
2017-11-22T01:23:24.994Z,9.97
2017-11-22T01:25:51.261Z,9.57
2017-11-22T01:28:18.250Z,9.70
2017-11-22T01:30:44.480Z,10.40
2017-11-22T01:33:10.716Z,9.23
2017-11-22T01:35:36.985Z,10.60
2017-11-22T01:38:03.969Z,10.20
2017-11-22T01:40:30.272Z,9.47
2017-11-22T01:42:57.274Z,9.90
2017-11-22T01:45:23.525Z,9.57
2017-11-22T01:47:49.769Z,9.53
2017-11-22T01:50:16.703Z,10.10
2017-11-22T01:52:42.953Z,9.70
2017-11-22T01:55:09.204Z,9.63
2017-11-22T01:57:35.446Z,10.00
2017-11-22T02:00:01.664Z,9.00
2017-11-22T02:02:27.930Z,10.47
2017-11-22T02:04:54.861Z,10.63
2017-11-22T02:07:21.120Z,10.63
2017-11-22T02:09:48.088Z,9.90
2017-11-22T02:12:15.084Z,10.50
2017-11-22T02:14:41.327Z,11.70
2017-11-22T02:17:08.325Z,10.60
2017-11-22T02:19:34.597Z,10.57
2017-11-22T02:22:01.604Z,11.43
2017-11-22T02:24:27.833Z,11.00
2017-11-22T02:26:54.062Z,11.50
2017-11-22T02:29:20.308Z,11.80
2017-11-22T02:31:46.550Z,11.50
2017-11-22T02:34:12.839Z,10.70
2017-11-22T02:36:39.125Z,12.07
2017-11-22T02:39:05.720Z,11.83
2017-11-22T02:41:31.999Z,11.30
2017-11-22T02:43:58.981Z,11.60
2017-11-22T02:46:25.580Z,12.80
2017-11-22T02:48:51.802Z,11.53
2017-11-22T02:51:18.808Z,11.60
2017-11-22T02:53:45.037Z,12.27
2017-11-22T02:56:11.302Z,12.97
2017-11-22T02:58:37.560Z,12.50
2017-11-22T03:01:04.545Z,12.17
2017-11-22T03:03:30.772Z,12.77
2017-11-22T03:05:57.031Z,13.33
2017-11-22T03:08:23.988Z,14.53
2017-11-22T03:10:50.183Z,13.83
2017-11-22T03:13:16.425Z,15.70
2017-11-22T03:15:42.584Z,14.23
2017-11-22T03:18:09.519Z,14.50
2017-11-22T03:20:36.474Z,13.07
2017-11-22T03:23:02.712Z,14.80
2017-11-22T03:25:29.704Z,14.80
2017-11-22T03:27:55.920Z,14.60
2017-11-22T03:30:23.022Z,15.07
2017-11-22T03:32:49.230Z,14.20
2017-11-22T03:35:15.421Z,14.23
2017-11-22T03:37:41.671Z,14.30
2017-11-22T03:40:07.912Z,14.50
2017-11-22T03:42:34.150Z,14.80
2017-11-22T03:45:01.143Z,15.50
2017-11-22T03:47:27.340Z,15.83
2017-11-22T03:50:00.539Z,14.07
2017-11-22T03:52:33.630Z,15.70
2017-11-22T03:55:00.638Z,15.33
2017-11-22T03:57:27.618Z,14.47
2017-11-22T03:59:54.557Z,14.70
2017-11-22T04:02:24.597Z,14.60
2017-11-22T04:04:53.388Z,15.57
2017-11-22T04:07:20.279Z,14.87
2017-11-22T04:09:46.553Z,15.37
2017-11-22T04:12:13.529Z,14.27
2017-11-22T04:14:39.768Z,15.70
2017-11-22T04:17:05.991Z,14.20
2017-11-22T04:19:32.207Z,15.50
2017-11-22T04:21:58.431Z,16.87
2017-11-22T04:24:24.677Z,15.47
2017-11-22T04:26:50.893Z,15.77
2017-11-22T04:29:17.048Z,17.53
2017-11-22T04:31:43.304Z,15.83
2017-11-22T04:34:09.521Z,19.90
2017-11-22T04:36:35.746Z,16.07
2017-11-22T04:39:02.805Z,18.00
2017-11-22T04:41:29.037Z,15.47
2017-11-22T04:43:55.213Z,16.30
2017-11-22T04:46:21.499Z,16.60
2017-11-22T04:48:48.500Z,17.00
2017-11-22T04:51:14.737Z,18.40
2017-11-22T04:53:41.040Z,17.70
2017-11-22T04:56:07.269Z,18.70
2017-11-22T04:58:33.559Z,18.10
2017-11-22T05:01:00.565Z,17.57
2017-11-22T05:03:26.839Z,19.40
2017-11-22T05:05:53.779Z,18.43
2017-11-22T05:08:20.013Z,18.83
2017-11-22T05:10:46.252Z,17.87
2017-11-22T05:13:13.204Z,17.90
2017-11-22T05:15:40.160Z,17.40
2017-11-22T05:18:06.402Z,17.67
2017-11-22T05:20:32.610Z,18.43
2017-11-22T05:23:05.630Z,17.70
2017-11-22T05:25:33.105Z,17.70
2017-11-22T05:28:07.731Z,19.17
2017-11-22T05:30:33.957Z,16.23
2017-11-22T05:33:00.163Z,18.03
2017-11-22T05:35:26.390Z,17.50
2017-11-22T05:37:52.635Z,18.30
2017-11-22T05:40:18.794Z,16.40
2017-11-22T05:42:45.041Z,19.00
2017-11-22T05:45:11.248Z,16.97
2017-11-22T05:47:37.447Z,17.47
2017-11-22T05:50:03.657Z,17.60
2017-11-22T05:52:29.878Z,17.00
2017-11-22T05:54:56.065Z,17.47
2017-11-22T05:57:23.076Z,18.80
2017-11-22T05:59:49.321Z,17.80
2017-11-22T06:02:15.567Z,16.67
2017-11-22T06:04:42.566Z,17.67
2017-11-22T06:07:08.797Z,18.50
2017-11-22T06:09:34.990Z,17.03
2017-11-22T06:12:01.960Z,18.20
2017-11-22T06:14:28.140Z,18.03
2017-11-22T06:16:54.336Z,16.73
2017-11-22T06:19:20.549Z,17.10
2017-11-22T06:21:46.755Z,18.27
2017-11-22T06:24:12.927Z,17.93
2017-11-22T06:26:39.128Z,17.50
2017-11-22T06:29:05.316Z,17.17
2017-11-22T06:31:32.277Z,16.90
2017-11-22T06:33:58.524Z,18.57
2017-11-22T06:36:24.741Z,29.60
2017-11-22T06:38:50.990Z,17.87
2017-11-22T06:41:17.510Z,20.93
2017-11-22T06:43:43.737Z,17.10
2017-11-22T06:46:10.007Z,17.30
2017-11-22T06:48:36.237Z,16.30
2017-11-22T06:51:02.437Z,16.70
2017-11-22T06:53:28.664Z,18.40
2017-11-22T06:55:54.928Z,16.73
2017-11-22T06:58:21.128Z,17.13
2017-11-22T07:00:47.368Z,16.60
2017-11-22T07:03:13.667Z,17.40
2017-11-22T07:05:39.907Z,16.17
2017-11-22T07:08:06.158Z,15.60
2017-11-22T07:10:32.364Z,15.47
2017-11-22T07:12:58.590Z,16.37
2017-11-22T07:15:24.777Z,15.80
2017-11-22T07:17:53.556Z,14.87
2017-11-22T07:20:19.731Z,15.40
2017-11-22T07:22:46.059Z,15.00
2017-11-22T07:25:12.319Z,15.30
2017-11-22T07:27:38.528Z,14.73
2017-11-22T07:30:04.771Z,15.73
2017-11-22T07:32:31.445Z,12.90
2017-11-22T07:34:58.381Z,14.10
2017-11-22T07:37:31.449Z,13.07
2017-11-22T07:39:57.638Z,14.00
2017-11-22T07:42:23.873Z,13.40
2017-11-22T07:44:50.080Z,13.40
2017-11-22T07:47:17.977Z,12.13
2017-11-22T07:49:44.167Z,12.80
2017-11-22T07:52:14.050Z,12.40
2017-11-22T07:54:40.304Z,11.70
2017-11-22T07:57:10.162Z,11.83
2017-11-22T07:59:36.417Z,12.40
2017-11-22T08:02:02.700Z,11.73
2017-11-22T08:04:28.927Z,12.20
2017-11-22T08:06:55.176Z,11.43
2017-11-22T08:09:21.529Z,11.03
2017-11-22T08:11:48.508Z,11.10
2017-11-22T08:14:14.740Z,12.17
2017-11-22T08:16:41.723Z,10.90
2017-11-22T08:19:07.952Z,10.10
2017-11-22T08:21:34.201Z,10.53
2017-11-22T08:24:00.402Z,9.90
2017-11-22T08:26:26.633Z,9.30
2017-11-22T08:28:52.891Z,9.53
2017-11-22T08:31:19.068Z,12.17
2017-11-22T08:33:46.065Z,10.47
2017-11-22T08:36:12.320Z,10.93
2017-11-22T08:38:38.521Z,11.47
2017-11-22T08:41:05.699Z,10.27
2017-11-22T08:43:31.985Z,10.70
2017-11-22T08:45:58.275Z,8.53
2017-11-22T08:48:25.249Z,10.50
2017-11-22T08:50:51.444Z,9.27
2017-11-22T08:53:18.352Z,9.20
2017-11-22T08:55:50.834Z,11.10
2017-11-22T08:58:17.047Z,10.23
2017-11-22T09:00:43.301Z,9.57
2017-11-22T09:03:09.633Z,8.60
2017-11-22T09:05:36.657Z,9.60
2017-11-22T09:08:02.860Z,8.53
2017-11-22T09:10:29.023Z,9.17
2017-11-22T09:12:55.267Z,9.57
2017-11-22T09:15:21.465Z,9.93
2017-11-22T09:17:47.652Z,9.10
2017-11-22T09:20:14.636Z,9.47
2017-11-22T09:22:40.847Z,9.30
2017-11-22T09:25:07.064Z,9.07
2017-11-22T09:27:39.385Z,10.07
2017-11-22T09:30:11.632Z,7.87
2017-11-22T09:32:38.618Z,8.63
2017-11-22T09:35:06.793Z,7.90
2017-11-22T09:37:33.724Z,7.90
2017-11-22T09:39:59.964Z,7.97
2017-11-22T09:42:28.790Z,9.70
2017-11-22T09:44:55.027Z,9.77
2017-11-22T09:47:21.233Z,8.83
2017-11-22T09:49:48.175Z,7.80
2017-11-22T09:52:15.103Z,8.17
2017-11-22T09:54:42.059Z,8.47
2017-11-22T09:57:09.051Z,8.33
2017-11-22T09:59:35.309Z,8.27
2017-11-22T10:02:02.278Z,10.87
2017-11-22T10:04:29.279Z,8.80
2017-11-22T10:06:55.492Z,8.77
2017-11-22T10:09:21.708Z,7.80
2017-11-22T10:11:47.959Z,7.70
2017-11-22T10:14:14.176Z,7.33
2017-11-22T10:16:40.429Z,7.40
2017-11-22T10:19:06.696Z,7.77
2017-11-22T10:21:39.656Z,7.20
2017-11-22T10:24:06.548Z,8.80
2017-11-22T10:26:32.880Z,8.40
2017-11-22T10:29:05.234Z,7.43
2017-11-22T10:31:32.228Z,7.03
2017-11-22T10:33:58.497Z,7.33
2017-11-22T10:36:25.509Z,7.60
2017-11-22T10:38:52.475Z,7.13
2017-11-22T10:41:18.753Z,7.20
2017-11-22T10:43:44.953Z,6.80
2017-11-22T10:46:11.990Z,6.80
2017-11-22T10:48:39.028Z,7.10
2017-11-22T10:51:05.269Z,7.00
2017-11-22T10:53:32.281Z,7.43
2017-11-22T10:55:58.556Z,7.00
2017-11-22T10:58:24.823Z,6.90
2017-11-22T11:00:51.116Z,6.70
2017-11-22T11:03:18.028Z,7.30
2017-11-22T11:05:44.305Z,6.27
2017-11-22T11:08:10.572Z,6.50
2017-11-22T11:10:36.812Z,6.60
2017-11-22T11:13:03.041Z,7.30
2017-11-22T11:15:29.243Z,6.93
2017-11-22T11:17:55.410Z,6.77
2017-11-22T11:20:21.592Z,6.97
2017-11-22T11:22:47.831Z,6.60
2017-11-22T11:25:14.079Z,6.90
2017-11-22T11:27:40.277Z,6.97
2017-11-22T11:30:06.493Z,6.27
2017-11-22T11:32:32.771Z,6.10
2017-11-22T11:34:59.001Z,5.93
2017-11-22T11:37:25.267Z,5.80
2017-11-22T11:39:51.545Z,6.17
2017-11-22T11:42:17.736Z,5.33
2017-11-22T11:44:43.992Z,5.60
2017-11-22T11:47:10.219Z,6.30
2017-11-22T11:49:36.444Z,5.70
2017-11-22T11:52:02.731Z,6.23
2017-11-22T11:54:29.768Z,5.70
2017-11-22T11:56:56.760Z,4.67
2017-11-22T11:59:23.021Z,5.60
2017-11-22T12:01:49.298Z,4.90
2017-11-22T12:04:15.568Z,5.50
2017-11-22T12:06:41.820Z,5.67
2017-11-22T12:09:08.054Z,5.20
2017-11-22T12:11:35.013Z,5.67
2017-11-22T12:14:02.013Z,5.50
2017-11-22T12:16:28.267Z,5.23
2017-11-22T12:18:54.474Z,4.80
2017-11-22T12:21:25.677Z,5.63
2017-11-22T12:23:51.852Z,5.70
2017-11-22T12:26:18.102Z,5.17
2017-11-22T12:28:45.093Z,5.43
2017-11-22T12:31:11.310Z,4.83
2017-11-22T12:33:37.513Z,4.70
2017-11-22T12:36:04.478Z,5.00
2017-11-22T12:38:30.685Z,4.43
2017-11-22T12:40:57.663Z,4.60
2017-11-22T12:43:23.856Z,4.30
2017-11-22T12:45:50.826Z,5.43
2017-11-22T12:48:17.043Z,4.53
2017-11-22T12:50:43.966Z,5.17
2017-11-22T12:53:10.192Z,4.30
2017-11-22T12:55:37.212Z,4.80
2017-11-22T12:58:03.423Z,4.00
2017-11-22T13:00:29.649Z,4.70
2017-11-22T13:02:55.905Z,4.33
2017-11-22T13:05:22.128Z,4.37
2017-11-22T13:07:48.347Z,4.07
2017-11-22T13:10:18.640Z,3.90
2017-11-22T13:12:44.921Z,4.87
2017-11-22T13:15:11.162Z,4.93
2017-11-22T13:17:37.483Z,4.50
2017-11-22T13:20:03.799Z,3.67
2017-11-22T13:22:30.005Z,4.30
2017-11-22T13:24:56.216Z,4.00
2017-11-22T13:27:22.483Z,5.30
2017-11-22T13:29:48.699Z,4.53
2017-11-22T13:32:19.868Z,4.17
2017-11-22T13:34:46.128Z,4.83
2017-11-22T13:37:13.088Z,4.93
2017-11-22T13:39:39.392Z,4.30
2017-11-22T13:42:06.402Z,4.77
2017-11-22T13:44:32.618Z,4.13
2017-11-22T13:46:58.868Z,3.83
2017-11-22T13:49:25.105Z,4.03
2017-11-22T13:51:52.337Z,4.50
2017-11-22T13:54:18.576Z,4.63
2017-11-22T13:56:44.808Z,4.23
2017-11-22T13:59:11.057Z,4.00
2017-11-22T14:01:38.096Z,4.73
2017-11-22T14:04:04.332Z,4.00
2017-11-22T14:06:30.604Z,3.93
2017-11-22T14:08:56.885Z,3.40
2017-11-22T14:11:23.159Z,3.70
2017-11-22T14:13:49.378Z,4.40
2017-11-22T14:16:16.401Z,3.90
2017-11-22T14:18:42.608Z,4.20
2017-11-22T14:21:08.872Z,5.23
2017-11-22T14:23:36.012Z,5.03
2017-11-22T14:26:03.015Z,4.43
2017-11-22T14:28:29.232Z,3.77
2017-11-22T14:30:55.484Z,3.67
2017-11-22T14:33:21.727Z,3.93
2017-11-22T14:35:47.937Z,3.87
2017-11-22T14:38:14.213Z,5.43
2017-11-22T14:40:41.288Z,4.07
2017-11-22T14:43:08.153Z,3.90
2017-11-22T14:45:34.412Z,3.77
2017-11-22T14:48:00.674Z,2.93
2017-11-22T14:50:26.922Z,3.70
2017-11-22T14:52:53.151Z,3.73
2017-11-22T14:55:19.385Z,3.50
2017-11-22T14:57:45.635Z,3.80
2017-11-22T15:00:11.930Z,4.00
2017-11-22T15:02:38.210Z,3.20
2017-11-22T15:05:04.433Z,3.83
2017-11-22T15:07:30.704Z,3.90
2017-11-22T15:09:57.676Z,3.07
2017-11-22T15:12:23.983Z,4.53
2017-11-22T15:14:50.222Z,4.33
2017-11-22T15:20:08.496Z,4.47
2017-11-22T15:22:34.705Z,4.10
2017-11-22T15:25:00.891Z,4.60
2017-11-22T15:27:27.932Z,4.70
2017-11-22T15:29:54.936Z,4.50
2017-11-22T15:32:21.156Z,4.57
2017-11-22T15:34:47.389Z,4.87
2017-11-22T15:37:13.634Z,4.60
2017-11-22T15:42:32.747Z,4.40
2017-11-22T15:44:59.021Z,4.33
2017-11-22T15:47:25.278Z,5.67
2017-11-22T15:49:52.190Z,4.70
2017-11-22T15:52:18.476Z,4.67
2017-11-22T15:54:44.719Z,5.10
2017-11-22T15:57:10.905Z,5.10
2017-11-22T15:59:37.913Z,6.57
2017-11-22T16:02:04.039Z,5.50
2017-11-22T16:04:30.186Z,4.67
2017-11-22T16:06:56.490Z,5.20
2017-11-22T16:09:23.863Z,5.50
2017-11-22T16:11:50.318Z,5.07
2017-11-22T16:14:16.585Z,4.73
2017-11-22T16:16:42.827Z,5.40
2017-11-22T16:19:11.031Z,5.10
2017-11-22T16:21:37.542Z,7.30
2017-11-22T16:24:03.740Z,5.43
2017-11-22T16:26:30.651Z,6.73
2017-11-22T16:28:56.884Z,6.10
2017-11-22T16:31:23.064Z,5.57
2017-11-22T16:33:49.236Z,7.40
2017-11-22T16:36:15.497Z,6.20
2017-11-22T16:38:41.765Z,6.60
2017-11-22T16:41:07.931Z,7.37
2017-11-22T16:43:34.915Z,6.57
2017-11-22T16:46:01.242Z,6.60
2017-11-22T16:48:27.478Z,6.63
2017-11-22T16:50:53.690Z,6.70
2017-11-22T16:53:20.633Z,7.90
2017-11-22T16:55:47.005Z,8.10
2017-11-22T16:58:13.151Z,8.93
2017-11-22T17:00:39.362Z,7.57
2017-11-22T17:03:05.597Z,8.27
2017-11-22T17:05:31.860Z,14.10
2017-11-22T17:07:58.845Z,18.07
2017-11-22T17:10:25.098Z,15.40
2017-11-22T17:12:51.307Z,9.90
2017-11-22T17:15:17.565Z,9.80
2017-11-22T17:17:44.520Z,7.70
2017-11-22T17:20:10.751Z,11.80
2017-11-22T17:22:37.819Z,18.70
2017-11-22T17:25:04.756Z,34.63
2017-11-22T17:27:31.716Z,21.20
2017-11-22T17:29:58.611Z,11.30
2017-11-22T17:32:24.788Z,11.40
2017-11-22T17:34:51.704Z,11.60
2017-11-22T17:37:17.940Z,13.50
2017-11-22T17:39:44.890Z,11.07
2017-11-22T17:42:11.906Z,10.40
2017-11-22T17:44:38.113Z,9.40
2017-11-22T17:47:04.274Z,7.37
2017-11-22T17:49:31.178Z,8.20
2017-11-22T17:51:57.340Z,8.50
2017-11-22T17:54:23.572Z,8.80
2017-11-22T17:56:50.663Z,9.17
2017-11-22T17:59:16.885Z,9.53
2017-11-22T18:01:43.066Z,9.57
2017-11-22T18:04:09.266Z,10.00
2017-11-22T18:06:35.731Z,9.67
2017-11-22T18:09:02.077Z,7.93
2017-11-22T18:11:28.386Z,8.70
2017-11-22T18:13:54.603Z,9.23
2017-11-22T18:16:20.821Z,8.73
2017-11-22T18:18:47.109Z,9.50
2017-11-22T18:21:14.058Z,9.67
2017-11-22T18:23:40.307Z,10.10
2017-11-22T18:26:06.522Z,10.20
2017-11-22T18:28:33.406Z,10.60
2017-11-22T18:30:59.587Z,9.30
2017-11-22T18:33:26.630Z,8.80
2017-11-22T18:35:53.514Z,7.17
2017-11-22T18:38:19.814Z,8.10
2017-11-22T18:40:46.022Z,7.00
2017-11-22T18:43:12.986Z,6.67
2017-11-22T18:45:39.926Z,6.30
2017-11-22T18:48:06.872Z,6.93
2017-11-22T18:50:33.822Z,7.30
2017-11-22T18:53:00.729Z,6.93
2017-11-22T18:55:26.939Z,6.70
2017-11-22T18:57:53.156Z,7.20
2017-11-22T19:00:19.371Z,7.27
2017-11-22T19:02:45.565Z,6.60
2017-11-22T19:05:11.802Z,6.57
2017-11-22T19:07:38.754Z,7.17
2017-11-22T19:10:05.727Z,7.83
2017-11-22T19:12:31.886Z,7.13
2017-11-22T19:14:58.108Z,5.77
2017-11-22T19:17:24.301Z,5.97
2017-11-22T19:19:50.480Z,5.47
2017-11-22T19:22:17.493Z,5.20
2017-11-22T19:24:43.666Z,5.50
2017-11-22T19:27:10.701Z,5.97
2017-11-22T19:29:36.914Z,5.17
2017-11-22T19:32:03.099Z,5.33
2017-11-22T19:34:29.269Z,6.43
2017-11-22T19:36:57.227Z,5.57
2017-11-22T19:39:25.172Z,5.90
2017-11-22T19:41:52.893Z,5.63
2017-11-22T19:44:19.816Z,5.60
2017-11-22T19:46:46.053Z,6.10
2017-11-22T19:49:13.416Z,6.80
2017-11-22T19:51:40.383Z,5.97
2017-11-22T19:54:07.367Z,6.30
2017-11-22T19:56:34.611Z,6.00
2017-11-22T19:59:00.817Z,6.27
2017-11-22T20:01:29.916Z,6.10
2017-11-22T20:03:58.478Z,6.47
2017-11-22T20:06:24.728Z,6.60
2017-11-22T20:08:55.843Z,6.63
2017-11-22T20:11:22.456Z,7.47
2017-11-22T20:13:48.699Z,6.07
2017-11-22T20:16:16.016Z,5.63
2017-11-22T20:18:42.200Z,5.73
2017-11-22T20:21:14.092Z,5.90
2017-11-22T20:23:43.189Z,5.93
2017-11-22T20:26:09.498Z,5.63
2017-11-22T20:28:38.670Z,6.10
2017-11-22T20:31:05.880Z,4.60
2017-11-22T20:36:16.247Z,5.23
2017-11-22T20:38:43.241Z,4.33
2017-11-22T20:41:10.356Z,4.47
2017-11-22T20:43:38.168Z,4.67
2017-11-22T20:48:45.012Z,5.57
2017-11-22T20:54:06.471Z,4.53
2017-11-22T20:56:36.299Z,5.20
2017-11-22T20:59:03.498Z,4.63
2017-11-22T21:01:30.428Z,4.70
2017-11-22T21:03:57.323Z,4.40
2017-11-22T21:06:23.510Z,4.80
2017-11-22T21:08:50.861Z,5.87
2017-11-22T21:11:18.533Z,5.13
2017-11-22T21:13:44.781Z,5.53
2017-11-22T21:16:12.057Z,9.50
2017-11-22T21:18:38.304Z,9.97
2017-11-22T21:21:15.329Z,11.90
2017-11-22T21:26:33.034Z,8.73
2017-11-22T21:31:50.042Z,8.60
2017-11-22T21:34:22.729Z,6.13
2017-11-22T21:36:50.635Z,5.43
2017-11-22T21:39:16.837Z,5.40
2017-11-22T21:41:43.772Z,5.33
2017-11-22T21:44:10.718Z,5.87
2017-11-22T21:46:37.977Z,5.43
2017-11-22T21:49:04.838Z,4.60
2017-11-22T21:51:31.818Z,4.57
2017-11-22T21:53:58.803Z,4.93
2017-11-22T21:56:26.017Z,5.80
2017-11-22T21:58:52.177Z,6.23
2017-11-22T22:01:18.333Z,7.40
2017-11-22T22:03:46.691Z,5.60
2017-11-22T22:06:13.645Z,5.30
2017-11-22T22:08:39.827Z,6.90
2017-11-22T22:11:07.627Z,5.90
2017-11-22T22:13:33.859Z,7.13
2017-11-22T22:16:00.106Z,6.60
2017-11-22T22:18:28.355Z,5.80
2017-11-22T22:20:54.505Z,5.57
2017-11-22T22:23:21.477Z,5.40
2017-11-22T22:25:47.693Z,4.87
2017-11-22T22:28:14.663Z,5.90
2017-11-22T22:30:40.855Z,5.63
2017-11-22T22:33:07.776Z,5.60
2017-11-22T22:35:34.023Z,5.97
2017-11-22T22:38:00.973Z,5.87
2017-11-22T22:40:27.909Z,5.10
2017-11-22T22:42:54.125Z,4.87
2017-11-22T22:45:20.248Z,4.90
2017-11-22T22:47:46.433Z,4.60
2017-11-22T22:50:12.547Z,4.77
2017-11-22T22:52:39.489Z,5.10
2017-11-22T22:55:05.666Z,4.70
2017-11-22T22:57:31.841Z,4.50
2017-11-22T22:59:58.823Z,4.77
2017-11-22T23:02:25.017Z,6.00
2017-11-22T23:04:51.228Z,5.17
2017-11-22T23:07:18.151Z,4.10
2017-11-22T23:09:44.403Z,5.30
2017-11-22T23:12:11.394Z,4.73
2017-11-22T23:14:37.662Z,5.60
2017-11-22T23:17:03.882Z,4.43
2017-11-22T23:19:30.849Z,4.87
2017-11-22T23:21:57.779Z,5.00
2017-11-22T23:24:23.922Z,4.27
2017-11-22T23:26:50.875Z,3.90
2017-11-22T23:29:17.031Z,3.70
2017-11-22T23:31:43.171Z,4.13
2017-11-22T23:34:09.375Z,4.73
2017-11-22T23:36:35.584Z,4.93
2017-11-22T23:39:02.579Z,4.60
2017-11-22T23:41:28.781Z,4.20
2017-11-22T23:43:55.045Z,4.73
2017-11-22T23:46:21.300Z,5.37
2017-11-22T23:48:48.211Z,5.37
2017-11-22T23:51:15.240Z,4.37
2017-11-22T23:53:41.471Z,4.30
2017-11-22T23:56:07.693Z,4.90
2017-11-22T23:58:33.964Z,4.40
